Time;durP1;ratioP1;P1;durP2;ratioP2;P2;SDS_P1;SDS_P2;PMS_P1;PMS_P2;Temp;Humidity;BMP_temperature;BMP_pressure;BME280_temperature;BME280_humidity;BME280_pressure;Samples;Min_cycle;Max_cycle;Signal;HPM_P1;HPM_P2
2022/09/01 00:01:20;;;;;;;2.07;0.80;;;;;;;15.36;62.43;101402.47;4958548;28;20746;-79
2022/09/01 00:03:47;;;;;;;0.90;0.87;;;;;;;15.42;62.57;101403.22;4958869;28;20227;-78
2022/09/01 00:06:14;;;;;;;3.30;0.80;;;;;;;15.39;62.85;101395.38;4957802;28;20244;-79
2022/09/01 00:08:42;;;;;;;2.67;1.00;;;;;;;15.46;62.84;101406.63;4958109;28;20266;-79
2022/09/01 00:11:09;;;;;;;1.40;0.90;;;;;;;15.45;62.32;101418.91;4958612;28;20219;-79
2022/09/01 00:13:35;;;;;;;1.20;0.90;;;;;;;15.41;62.55;101411.13;4958681;28;20322;-78
2022/09/01 00:16:03;;;;;;;0.90;0.90;;;;;;;15.41;63.22;101414.63;4958229;28;20271;-79
2022/09/01 00:18:30;;;;;;;0.70;0.70;;;;;;;15.45;62.73;101411.03;4958439;28;20212;-79
2022/09/01 00:20:58;;;;;;;1.40;0.80;;;;;;;15.40;63.00;101418.19;4958735;28;20212;-79
2022/09/01 00:23:25;;;;;;;1.00;0.80;;;;;;;15.37;62.97;101412.97;4958193;28;20242;-79
2022/09/01 00:25:54;;;;;;;2.10;0.73;;;;;;;15.38;63.41;101405.94;4958475;29;20205;-79
2022/09/01 00:28:21;;;;;;;1.00;0.90;;;;;;;15.33;64.08;101386.78;4959131;29;20203;-79
2022/09/01 00:30:47;;;;;;;2.00;0.80;;;;;;;15.29;64.28;101372.81;4939789;29;20205;-79
2022/09/01 00:33:14;;;;;;;0.80;0.80;;;;;;;15.28;64.08;101364.09;4939311;29;20233;-79
2022/09/01 00:35:42;;;;;;;1.17;0.80;;;;;;;15.25;64.25;101358.03;4938736;29;20221;-78
2022/09/01 00:38:09;;;;;;;1.37;0.87;;;;;;;15.30;64.34;101356.13;4938646;29;20216;-79
2022/09/01 00:40:35;;;;;;;1.90;1.67;;;;;;;15.22;64.86;101366.84;4938717;29;20265;-79
2022/09/01 00:43:11;;;;;;;1.27;1.00;;;;;;;15.15;65.30;101353.88;4938665;29;20240;-79
2022/09/01 00:45:37;;;;;;;1.80;0.87;;;;;;;15.15;65.31;101336.34;4938624;29;20212;-79
2022/09/01 00:48:05;;;;;;;1.60;0.90;;;;;;;15.03;66.13;101319.06;4938276;29;20213;-79
2022/09/01 00:50:32;;;;;;;0.80;0.80;;;;;;;15.06;65.83;101302.34;4938236;29;20221;-79
2022/09/01 00:52:59;;;;;;;1.40;1.07;;;;;;;15.03;66.25;101297.19;4937771;29;20295;-79
2022/09/01 00:55:29;;;;;;;0.73;0.73;;;;;;;14.96;66.31;101301.69;4968793;23;20263;-86
2022/09/01 00:57:56;;;;;;;1.30;0.80;;;;;;;14.92;66.42;101299.19;4943895;29;20273;-85
2022/09/01 01:00:26;;;;;;;1.27;0.90;;;;;;;14.94;66.92;101292.13;4937491;29;20630;-84
2022/09/01 01:02:54;;;;;;;0.70;0.70;;;;;;;14.94;67.13;101282.47;4937319;29;20264;-84
2022/09/01 01:05:22;;;;;;;1.10;1.00;;;;;;;14.89;67.07;101277.31;4937214;29;20340;-84
2022/09/01 01:07:49;;;;;;;1.63;0.90;;;;;;;14.82;67.60;101265.22;4944562;29;20243;-84
2022/09/01 01:10:18;;;;;;;0.97;0.80;;;;;;;14.80;67.61;101261.75;4953360;29;20239;-85
2022/09/01 01:12:45;;;;;;;0.90;0.80;;;;;;;14.77;68.16;101255.75;4960321;29;20208;-84
2022/09/01 01:15:13;;;;;;;1.03;0.90;;;;;;;14.76;68.43;101233.81;4960549;28;20239;-87
2022/09/01 01:17:41;;;;;;;0.80;0.80;;;;;;;14.75;68.76;101229.47;4960548;28;20216;-85
2022/09/01 01:23:06;;;;;;;1.80;0.90;;;;;;;14.66;68.61;101214.78;4934563;28;20591;-84
2022/09/01 01:25:37;;;;;;;1.33;0.90;;;;;;;14.64;69.24;101215.72;4958954;28;20235;-84
2022/09/01 01:28:07;;;;;;;1.00;0.90;;;;;;;14.64;69.01;101220.97;4958938;29;20215;-85
2022/09/01 01:30:34;;;;;;;0.90;0.90;;;;;;;14.66;68.54;101248.94;4959488;28;20701;-84
2022/09/01 01:33:00;;;;;;;0.83;0.80;;;;;;;14.67;68.30;101268.22;4959390;29;20267;-84
2022/09/01 01:35:28;;;;;;;1.53;0.90;;;;;;;14.70;68.17;101273.38;4959513;28;20242;-84
2022/09/01 01:37:55;;;;;;;1.63;1.30;;;;;;;14.76;68.16;101285.53;4959135;29;20629;-85
2022/09/01 01:40:22;;;;;;;1.90;1.00;;;;;;;14.78;68.21;101281.09;4951648;29;20204;-85
2022/09/01 01:42:53;;;;;;;1.63;1.00;;;;;;;14.71;68.08;101290.91;4940989;29;20438;-84
2022/09/01 01:45:23;;;;;;;1.60;0.83;;;;;;;14.68;68.13;101290.97;4940139;29;20287;-84
2022/09/01 01:47:52;;;;;;;1.53;1.00;;;;;;;14.61;69.02;101277.09;4940310;29;20261;-84
2022/09/01 01:50:20;;;;;;;2.70;0.87;;;;;;;14.56;68.69;101260.56;4941006;29;20223;-87
2022/09/01 01:52:47;;;;;;;3.57;1.00;;;;;;;14.60;68.46;101272.72;4939875;29;20213;-84
2022/09/01 01:55:18;;;;;;;1.50;1.00;;;;;;;14.61;68.63;101263.97;4939245;29;20251;-83
2022/09/01 01:57:48;;;;;;;1.23;0.90;;;;;;;14.58;68.89;101265.78;4940394;29;20252;-84
2022/09/01 02:00:19;;;;;;;0.70;0.70;;;;;;;14.57;69.16;101267.56;4941132;29;20279;-85
2022/09/01 02:02:51;;;;;;;1.83;0.70;;;;;;;14.46;69.58;101259.88;4940648;29;20231;-85
2022/09/01 02:05:20;;;;;;;1.27;0.80;;;;;;;14.50;69.98;101248.38;4941527;29;20627;-86
2022/09/01 02:07:47;;;;;;;1.17;0.90;;;;;;;14.47;69.58;101252.88;4941053;29;20701;-84
2022/09/01 02:10:13;;;;;;;1.00;0.90;;;;;;;14.37;69.92;101248.69;4953215;28;20205;-84
2022/09/01 02:12:40;;;;;;;1.60;0.90;;;;;;;14.33;70.65;101231.28;4959743;29;20750;-85
2022/09/01 02:15:07;;;;;;;1.10;1.00;;;;;;;14.26;71.14;101209.53;4960883;28;20321;-85
2022/09/01 02:17:38;;;;;;;1.00;1.00;;;;;;;14.26;70.66;101218.28;4961435;28;20206;-86
2022/09/01 02:20:06;;;;;;;1.37;0.90;;;;;;;14.25;70.65;101226.19;4959984;28;20212;-86
2022/09/01 02:22:32;;;;;;;1.00;1.00;;;;;;;14.20;71.43;101221.03;4960660;29;20235;-84
2022/09/01 02:24:59;;;;;;;1.33;1.10;;;;;;;14.18;71.38;101208.84;4959120;28;20610;-86
2022/09/01 02:27:28;;;;;;;2.40;0.97;;;;;;;14.15;71.59;101194.00;4953017;28;20264;-85
2022/09/01 02:29:54;;;;;;;1.00;0.90;;;;;;;14.07;72.08;101202.06;4961588;28;20208;-85
2022/09/01 02:32:21;;;;;;;4.10;1.00;;;;;;;14.05;71.98;101189.84;4964455;29;20235;-84
2022/09/01 02:34:52;;;;;;;1.47;1.30;;;;;;;14.04;71.88;101185.50;4964310;28;20259;-86
2022/09/01 02:37:20;;;;;;;1.20;1.10;;;;;;;13.97;72.55;101176.88;4964968;29;20227;-86
2022/09/01 02:39:47;;;;;;;1.30;1.20;;;;;;;13.95;73.03;101164.69;4964026;29;20271;-85
2022/09/01 02:42:13;;;;;;;1.27;1.10;;;;;;;13.92;72.97;101154.28;4964088;29;20216;-85
2022/09/01 02:44:42;;;;;;;1.37;1.30;;;;;;;13.84;73.59;101136.06;4964720;28;20734;-83
2022/09/01 02:47:08;;;;;;;2.23;1.10;;;;;;;13.83;73.61;101123.84;4964371;29;20218;-86
2022/09/01 02:49:35;;;;;;;1.50;1.17;;;;;;;13.82;73.68;101130.00;4965462;28;20220;-85
2022/09/01 02:52:05;;;;;;;2.53;1.33;;;;;;;13.79;73.79;101119.53;4965567;29;20701;-85
2022/09/01 02:54:32;;;;;;;1.57;1.00;;;;;;;13.75;74.36;101120.50;4965367;28;20318;-86
2022/09/01 02:56:58;;;;;;;1.27;1.17;;;;;;;13.80;74.14;101121.28;4960918;29;20727;-85
2022/09/01 02:59:28;;;;;;;1.47;1.10;;;;;;;13.80;73.81;101127.41;4963518;29;20199;-84
2022/09/01 03:01:55;;;;;;;1.47;1.00;;;;;;;13.83;74.06;101134.31;4965992;29;20683;-85
2022/09/01 03:04:23;;;;;;;1.03;1.03;;;;;;;13.67;74.81;101118.91;4964314;28;20283;-84
2022/09/01 03:06:51;;;;;;;1.60;1.17;;;;;;;13.63;74.35;101124.25;4962448;29;20306;-85
2022/09/01 03:09:19;;;;;;;1.60;1.50;;;;;;;13.59;74.85;101117.34;4961839;29;20747;-84
2022/09/01 03:11:48;;;;;;;2.63;1.13;;;;;;;13.55;75.09;101110.44;4963741;29;20247;-85
2022/09/01 03:14:14;;;;;;;1.13;1.10;;;;;;;13.58;74.78;101115.63;4963259;28;20227;-86
2022/09/01 03:16:41;;;;;;;1.47;1.13;;;;;;;13.52;75.02;101119.25;4964343;29;20269;-86
2022/09/01 03:19:09;;;;;;;1.53;1.43;;;;;;;13.54;74.48;101146.31;4964632;29;20208;-85
2022/09/01 03:21:38;;;;;;;1.07;0.90;;;;;;;13.55;73.93;101152.41;4965960;29;20242;-83
2022/09/01 03:24:05;;;;;;;0.90;0.90;;;;;;;13.60;74.59;101156.66;4965131;28;20271;-86
2022/09/01 03:26:32;;;;;;;1.23;1.10;;;;;;;13.58;74.66;101144.50;4963744;29;20211;-86
2022/09/01 03:28:59;;;;;;;1.40;1.00;;;;;;;13.61;75.36;101134.78;4959804;29;20211;-85
2022/09/01 03:31:27;;;;;;;1.40;1.13;;;;;;;13.51;75.78;101131.47;4967310;29;20234;-85
2022/09/01 03:33:55;;;;;;;1.00;1.00;;;;;;;13.46;75.64;101111.50;4961203;28;20235;-84
2022/09/01 03:36:22;;;;;;;1.30;1.20;;;;;;;13.37;76.09;101095.94;4959626;29;20217;-84
2022/09/01 03:38:50;;;;;;;1.10;1.10;;;;;;;13.34;76.00;101096.88;4959627;29;20616;-84
2022/09/01 03:41:20;;;;;;;1.60;1.33;;;;;;;13.39;74.97;101118.59;4959854;28;20245;-84
2022/09/01 03:43:48;;;;;;;0.90;0.90;;;;;;;13.38;75.54;101119.50;4960269;28;20300;-84
2022/09/01 03:46:20;;;;;;;2.63;1.20;;;;;;;13.34;75.54;101133.56;4959630;29;20559;-84
2022/09/01 03:48:47;;;;;;;1.37;1.27;;;;;;;13.38;75.12;101135.25;4959832;28;20217;-84
2022/09/01 03:51:14;;;;;;;1.57;1.20;;;;;;;13.34;76.12;101115.22;4960007;29;20543;-85
2022/09/01 03:53:42;;;;;;;1.30;1.20;;;;;;;13.38;75.85;101114.25;4959029;28;20241;-83
2022/09/01 03:56:10;;;;;;;1.20;1.10;;;;;;;13.42;75.81;101105.44;4958821;29;20244;-84
2022/09/01 03:58:37;;;;;;;1.40;1.30;;;;;;;13.42;77.08;101083.56;4951248;29;20205;-84
2022/09/01 04:01:05;;;;;;;2.10;1.40;;;;;;;13.37;77.80;101057.47;4959262;29;20212;-84
2022/09/01 04:03:33;;;;;;;3.33;1.27;;;;;;;13.30;78.43;101048.00;4959646;29;20231;-84
2022/09/01 04:06:01;;;;;;;2.03;1.30;;;;;;;13.37;77.76;101057.47;4959116;28;20257;-84
2022/09/01 04:08:29;;;;;;;2.50;1.40;;;;;;;13.35;78.05;101055.78;4959420;28;20270;-83
2022/09/01 04:10:58;;;;;;;1.87;1.20;;;;;;;13.39;76.94;101070.53;4958893;28;20214;-84
2022/09/01 04:13:29;;;;;;;1.33;1.17;;;;;;;13.43;77.31;101093.19;4959303;29;20211;-84
2022/09/01 04:15:56;;;;;;;1.57;1.10;;;;;;;13.29;78.67;101073.34;4959744;28;20263;-84
2022/09/01 04:18:24;;;;;;;1.63;1.13;;;;;;;13.32;77.05;101093.41;4958862;29;20228;-84
2022/09/01 04:20:52;;;;;;;5.60;1.90;;;;;;;13.30;77.36;101106.53;4958884;29;20690;-83
2022/09/01 04:23:25;;;;;;;2.13;1.40;;;;;;;13.35;77.16;101108.22;4959251;29;20229;-85
2022/09/01 04:25:54;;;;;;;2.00;1.40;;;;;;;13.34;77.07;101114.34;4959447;28;20225;-84
2022/09/01 04:28:23;;;;;;;1.63;1.10;;;;;;;13.34;77.32;101109.09;4950958;29;20685;-84
2022/09/01 04:30:54;;;;;;;1.63;1.10;;;;;;;13.32;76.87;101114.38;4959003;28;20748;-84
2022/09/01 04:33:21;;;;;;;1.03;1.00;;;;;;;13.25;77.04;101115.34;4958655;29;20269;-83
2022/09/01 04:35:49;;;;;;;1.87;1.07;;;;;;;13.21;77.08;101116.31;4958233;28;20776;-83
2022/09/01 04:38:16;;;;;;;1.43;1.30;;;;;;;13.20;77.66;101115.47;4958304;29;20215;-83
2022/09/01 04:40:43;;;;;;;1.73;1.40;;;;;;;13.20;77.27;101115.47;4958288;28;20206;-83
2022/09/01 04:43:10;;;;;;;1.50;1.10;;;;;;;13.18;77.60;101114.63;4957615;29;20217;-85
2022/09/01 04:45:37;;;;;;;1.30;1.20;;;;;;;13.19;77.51;101116.34;4958018;28;20235;-84
2022/09/01 04:48:05;;;;;;;1.20;1.10;;;;;;;13.12;77.34;101101.59;4958237;29;20218;-83
2022/09/01 04:50:31;;;;;;;1.20;1.20;;;;;;;13.05;78.54;101092.16;4958179;29;20222;-84
2022/09/01 04:53:00;;;;;;;1.73;1.33;;;;;;;13.09;79.41;101080.72;4957958;28;20219;-84
2022/09/01 04:55:28;;;;;;;1.83;1.40;;;;;;;13.04;79.64;101067.69;4956828;28;20292;-82
2022/09/01 04:57:56;;;;;;;1.60;1.27;;;;;;;13.03;79.93;101049.38;4950167;29;20633;-84
2022/09/01 05:00:25;;;;;;;1.50;1.40;;;;;;;13.00;80.49;101034.59;4958527;29;20261;-84
2022/09/01 05:02:53;;;;;;;1.20;1.10;;;;;;;13.06;80.54;101037.09;4957912;29;20691;-84
2022/09/01 05:05:20;;;;;;;1.50;1.40;;;;;;;13.05;79.68;101058.94;4957930;28;20233;-85
2022/09/01 05:07:49;;;;;;;2.30;1.40;;;;;;;13.14;80.52;101057.91;4957649;29;20214;-84
2022/09/01 05:10:18;;;;;;;1.40;1.30;;;;;;;13.17;80.40;101052.59;4958304;29;20294;-84
2022/09/01 05:12:45;;;;;;;2.17;1.30;;;;;;;13.20;79.90;101060.41;4958495;29;20214;-84
2022/09/01 05:15:13;;;;;;;1.70;1.57;;;;;;;13.25;79.64;101081.28;4957978;28;20229;-83
2022/09/01 05:17:40;;;;;;;1.43;1.33;;;;;;;13.30;79.06;101092.59;4958101;29;20206;-83
2022/09/01 05:20:09;;;;;;;1.73;1.40;;;;;;;13.33;79.11;101096.88;4957587;28;20746;-84
2022/09/01 05:22:39;;;;;;;1.57;1.47;;;;;;;13.32;79.32;101101.28;4957924;29;20250;-83
2022/09/01 05:25:11;;;;;;;1.63;1.40;;;;;;;13.37;79.10;101099.41;4957489;28;20245;-83
2022/09/01 05:27:41;;;;;;;1.90;1.43;;;;;;;13.35;79.42;101110.84;4949843;29;20199;-84
2022/09/01 05:30:09;;;;;;;1.77;1.10;;;;;;;13.33;79.22;101110.00;4957438;29;20208;-84
2022/09/01 05:32:38;;;;;;;1.50;1.30;;;;;;;13.35;79.66;101090.72;4957228;29;20306;-84
2022/09/01 05:35:07;;;;;;;2.03;1.67;;;;;;;13.37;79.49;101099.41;4957328;28;20286;-84
2022/09/01 05:37:34;;;;;;;2.07;1.30;;;;;;;13.44;79.76;101094.94;4957583;29;20218;-83
2022/09/01 05:40:01;;;;;;;1.40;1.30;;;;;;;13.45;79.23;101102.75;4957791;29;20207;-84
2022/09/01 05:42:27;;;;;;;3.00;1.73;;;;;;;13.48;79.28;101107.94;4957530;29;20215;-82
2022/09/01 05:44:57;;;;;;;2.30;1.57;;;;;;;13.54;79.68;101114.81;4954118;28;21477;-84
2022/09/01 05:47:25;;;;;;;2.70;1.60;;;;;;;13.57;79.40;101116.50;4948338;29;21070;-84
2022/09/01 05:49:52;;;;;;;5.20;2.87;;;;;;;13.60;78.98;101129.56;4954040;29;20221;-84
2022/09/01 05:52:25;;;;;;;3.10;2.47;;;;;;;13.66;78.91;101143.41;4956099;29;20213;-84
2022/09/01 05:54:51;;;;;;;1.80;1.70;;;;;;;13.68;78.11;101167.88;4958950;28;20239;-83
2022/09/01 05:57:18;;;;;;;3.13;2.17;;;;;;;13.66;78.07;101169.66;4958460;29;20269;-85
2022/09/01 05:59:45;;;;;;;2.50;2.30;;;;;;;13.67;77.95;101175.75;4958735;29;20568;-84
2022/09/01 06:02:13;;;;;;;2.47;2.30;;;;;;;13.72;77.76;101173.91;4959171;28;20210;-85
2022/09/01 06:04:42;;;;;;;1.90;1.80;;;;;;;13.72;78.18;101178.31;4961203;28;20237;-83
2022/09/01 06:07:13;;;;;;;1.90;1.80;;;;;;;13.73;77.83;101180.88;4962773;29;20207;-85
2022/09/01 06:09:41;;;;;;;2.97;2.03;;;;;;;13.76;78.11;101179.97;4962572;29;20216;-85
2022/09/01 06:12:16;;;;;;;2.50;1.90;;;;;;;13.84;78.17;101180.69;4951904;29;20211;-86
2022/09/01 06:14:42;;;;;;;2.07;1.97;;;;;;;13.87;77.80;101177.97;4952266;29;20271;-82
2022/09/01 06:17:09;;;;;;;2.40;2.20;;;;;;;13.88;77.81;101184.97;4953025;29;20206;-81
2022/09/01 06:19:38;;;;;;;2.80;1.90;;;;;;;13.90;78.12;101181.41;4952214;29;20681;-83
2022/09/01 06:22:05;;;;;;;1.80;1.70;;;;;;;13.93;78.12;101183.09;4953147;29;20208;-85
2022/09/01 06:24:31;;;;;;;3.23;2.90;;;;;;;13.95;78.01;101183.06;4951382;29;20236;-83
2022/09/01 06:26:58;;;;;;;2.03;1.83;;;;;;;13.97;78.33;101179.50;4952988;29;20204;-85
2022/09/01 06:29:24;;;;;;;2.33;2.03;;;;;;;13.99;78.56;101177.72;4952941;29;20209;-82
2022/09/01 06:31:51;;;;;;;2.60;2.00;;;;;;;14.09;78.63;101173.13;4950846;29;20209;-86
2022/09/01 06:34:18;;;;;;;1.90;1.80;;;;;;;14.08;78.40;101174.03;4952053;29;20222;-85
2022/09/01 06:36:49;;;;;;;1.70;1.60;;;;;;;14.12;78.44;101167.84;4951977;29;20206;-85
2022/09/01 06:39:18;;;;;;;1.80;1.70;;;;;;;14.18;78.84;101161.59;4953483;29;20203;-86
2022/09/01 06:41:46;;;;;;;1.60;1.50;;;;;;;14.22;78.27;101174.59;4952534;29;20208;-83
2022/09/01 06:44:13;;;;;;;1.67;1.57;;;;;;;14.25;78.36;101182.44;4951383;28;20231;-86
2022/09/01 06:46:39;;;;;;;2.27;1.70;;;;;;;14.28;78.28;101181.47;4961804;29;20214;-84
2022/09/01 06:49:10;;;;;;;1.90;1.80;;;;;;;14.35;78.58;101179.56;4964853;29;20619;-82
2022/09/01 06:51:37;;;;;;;1.90;1.80;;;;;;;14.37;78.27;101183.91;4952228;29;20724;-82
2022/09/01 06:54:42;;;;;;;1.87;1.70;;;;;;;14.41;78.33;101195.19;4951837;29;20231;-85
2022/09/01 06:57:09;;;;;;;4.00;1.97;;;;;;;14.49;78.37;101199.38;4950911;29;20200;-86
2022/09/01 06:59:35;;;;;;;1.73;1.63;;;;;;;14.55;78.38;101198.38;4951388;29;20212;-83
2022/09/01 07:02:02;;;;;;;2.47;1.90;;;;;;;14.65;77.69;101217.47;4949811;29;20676;-82
2022/09/01 07:04:30;;;;;;;2.60;1.80;;;;;;;14.71;76.96;101233.09;4948029;28;20231;-83
2022/09/01 07:06:57;;;;;;;1.67;1.57;;;;;;;14.79;76.64;101248.69;4951196;29;20287;-82
2022/09/01 07:09:25;;;;;;;3.10;1.63;;;;;;;14.82;77.09;101259.97;4949833;29;20260;-84
2022/09/01 07:11:54;;;;;;;4.03;2.20;;;;;;;14.85;76.88;101267.78;4948953;29;20208;-84
2022/09/01 07:14:25;;;;;;;1.97;1.73;;;;;;;14.89;76.83;101272.06;4952711;28;20290;-86
2022/09/01 07:16:51;;;;;;;2.80;1.83;;;;;;;14.93;76.56;101278.13;4949274;28;20209;-84
2022/09/01 07:19:18;;;;;;;2.00;1.80;;;;;;;15.00;76.83;101274.44;4953334;29;20207;-83
2022/09/01 07:22:04;;;;;;;1.90;1.80;;;;;;;15.07;76.84;101264.66;4950840;29;20691;-85
2022/09/01 07:24:33;;;;;;;2.80;2.50;;;;;;;15.10;76.91;101269.81;4951228;28;20574;-84
2022/09/01 07:27:49;;;;;;;2.07;1.93;;;;;;;15.15;76.93;101267.94;4951157;29;20669;-86
2022/09/01 07:30:17;;;;;;;2.10;1.90;;;;;;;15.24;76.44;101277.38;4951910;29;20208;-84
2022/09/01 07:32:45;;;;;;;2.93;2.00;;;;;;;15.29;76.33;101291.28;4950567;29;20238;-86
2022/09/01 07:35:18;;;;;;;2.10;1.50;;;;;;;15.36;76.43;101284.09;4948852;29;20227;-83
2022/09/01 07:37:51;;;;;;;2.67;2.23;;;;;;;15.41;75.97;101298.00;4950177;29;20210;-83
2022/09/01 07:40:21;;;;;;;2.97;1.60;;;;;;;15.49;75.95;101301.31;4951773;29;20239;-83
2022/09/01 07:46:09;;;;;;;3.33;1.87;;;;;;;15.67;75.13;101331.53;4992736;23;20243;-77
2022/09/01 07:48:36;;;;;;;1.50;1.30;;;;;;;15.74;75.71;101320.00;4986662;28;20211;-76
2022/09/01 07:51:03;;;;;;;1.67;1.57;;;;;;;15.81;75.78;101318.91;4984052;28;20209;-75
2022/09/01 07:53:34;;;;;;;2.00;1.53;;;;;;;15.88;75.18;101320.50;4988519;28;20699;-77
2022/09/01 07:56:07;;;;;;;1.67;1.57;;;;;;;15.89;76.08;101306.41;5003409;28;20544;-77
2022/09/01 07:58:35;;;;;;;1.70;1.27;;;;;;;15.92;73.98;101339.72;5002717;28;20565;-77
2022/09/01 08:01:07;;;;;;;1.67;1.30;;;;;;;15.95;73.89;101375.63;5003845;28;20260;-76
2022/09/01 08:03:33;;;;;;;1.90;1.30;;;;;;;15.99;73.58;101378.13;5004451;28;20227;-77
2022/09/01 08:06:05;;;;;;;2.23;1.20;;;;;;;16.08;73.12;101406.84;5002870;28;20273;-75
2022/09/01 08:08:32;;;;;;;1.67;1.10;;;;;;;16.18;72.43;101431.19;5002510;28;20246;-76
2022/09/01 08:10:58;;;;;;;3.23;1.30;;;;;;;16.27;71.66;101456.41;5004076;28;20202;-76
2022/09/01 08:13:26;;;;;;;2.73;0.93;;;;;;;16.33;70.87;101489.66;5003961;28;20276;-77
2022/09/01 08:15:52;;;;;;;1.77;1.10;;;;;;;16.41;69.99;101509.66;5002499;28;20199;-76
2022/09/01 08:18:19;;;;;;;3.57;0.93;;;;;;;16.48;69.01;101552.50;5003450;28;20561;-76
2022/09/01 08:20:46;;;;;;;1.20;0.90;;;;;;;16.54;69.14;101576.06;4999160;28;20261;-76
2022/09/01 08:23:17;;;;;;;0.80;0.80;;;;;;;16.63;68.92;101569.69;5004458;28;20218;-76
2022/09/01 08:25:45;;;;;;;1.20;0.80;;;;;;;16.67;68.53;101566.94;5001161;28;20232;-74
2022/09/01 08:28:15;;;;;;;1.30;0.90;;;;;;;16.74;68.02;101590.50;5001783;28;20254;-76
2022/09/01 08:30:44;;;;;;;2.00;1.03;;;;;;;16.82;67.05;101621.06;5003800;28;20683;-76
2022/09/01 08:33:12;;;;;;;3.80;0.83;;;;;;;16.90;66.78;101639.34;5003790;28;20238;-76
2022/09/01 08:35:40;;;;;;;2.00;0.73;;;;;;;16.92;66.29;101661.25;5002553;28;20684;-77
2022/09/01 08:38:06;;;;;;;1.07;0.80;;;;;;;16.94;65.41;101691.09;5002936;28;20203;-76
2022/09/01 08:40:33;;;;;;;2.80;1.03;;;;;;;16.94;65.00;101708.72;5004351;28;20206;-77
2022/09/01 08:43:12;;;;;;;1.53;0.87;;;;;;;16.94;64.13;101735.94;5003024;28;20266;-77
2022/09/01 08:45:47;;;;;;;1.47;0.87;;;;;;;16.99;63.63;101752.53;5000216;28;20230;-76
2022/09/01 08:48:17;;;;;;;1.17;0.87;;;;;;;17.09;63.23;101766.38;5001660;28;20234;-76
2022/09/01 08:50:48;;;;;;;1.70;0.80;;;;;;;17.19;62.61;101780.19;5002692;28;20206;-76
2022/09/01 08:53:23;;;;;;;0.87;0.70;;;;;;;17.31;61.48;101808.06;5003667;28;20916;-76
2022/09/01 08:55:54;;;;;;;1.07;1.00;;;;;;;17.40;60.77;101843.00;5002321;28;20277;-76
2022/09/01 08:58:21;;;;;;;2.33;0.70;;;;;;;17.55;60.28;101857.59;5000287;28;20198;-76
2022/09/01 09:00:56;;;;;;;1.80;0.80;;;;;;;17.67;60.26;101874.88;5002096;28;20206;-76
2022/09/01 09:03:31;;;;;;;0.80;0.80;;;;;;;17.76;59.97;101876.41;5000441;28;20230;-76
2022/09/01 09:06:09;;;;;;;1.27;1.00;;;;;;;17.81;59.60;101883.31;4998890;28;20221;-76
2022/09/01 09:08:53;;;;;;;0.97;0.87;;;;;;;17.81;59.79;101890.38;5001536;28;20233;-76
2022/09/01 09:11:46;;;;;;;1.20;0.93;;;;;;;17.76;60.56;101874.66;4999438;28;20195;-76
2022/09/01 09:14:22;;;;;;;0.70;0.70;;;;;;;17.75;60.27;101854.44;5003055;28;20222;-76
2022/09/01 09:16:53;;;;;;;1.27;0.87;;;;;;;17.72;60.86;101809.63;5002630;28;20238;-77
2022/09/01 09:19:23;;;;;;;2.63;0.80;;;;;;;17.73;61.67;101773.50;4999437;28;20203;-76
2022/09/01 09:21:51;;;;;;;1.33;1.00;;;;;;;17.76;61.06;101763.72;5001315;28;20738;-76
2022/09/01 09:24:26;;;;;;;5.00;1.40;;;;;;;17.83;61.83;101781.16;4998913;28;20223;-76
2022/09/01 09:26:56;;;;;;;1.60;1.10;;;;;;;17.92;60.70;101776.53;5001078;28;20213;-76
2022/09/01 09:29:23;;;;;;;1.10;1.00;;;;;;;17.97;60.27;101801.06;5001881;28;20198;-76
2022/09/01 09:32:03;;;;;;;2.27;1.07;;;;;;;17.99;60.51;101797.44;5002708;28;20266;-76
2022/09/01 09:34:33;;;;;;;2.83;1.30;;;;;;;18.06;60.32;101790.22;5001523;28;20227;-76
2022/09/01 09:37:20;;;;;;;4.80;1.07;;;;;;;18.15;60.86;101804.94;4998970;28;20200;-76
2022/09/01 09:40:04;;;;;;;1.47;0.97;;;;;;;18.21;59.21;101815.34;5000983;28;20203;-75
2022/09/01 09:42:31;;;;;;;1.87;1.00;;;;;;;18.25;59.52;101828.44;5002218;28;20231;-76
2022/09/01 09:44:57;;;;;;;1.40;1.13;;;;;;;18.34;59.66;101810.59;4997805;28;20700;-75
2022/09/01 09:47:41;;;;;;;1.20;0.87;;;;;;;18.41;58.97;101830.63;5002050;28;20218;-76
2022/09/01 09:50:16;;;;;;;1.63;0.90;;;;;;;18.52;58.22;101839.13;5001030;28;20199;-76
2022/09/01 09:52:45;;;;;;;0.57;0.57;;;;;;;18.58;56.75;101889.19;4999569;28;20214;-76
2022/09/01 09:55:22;;;;;;;1.20;0.60;;;;;;;18.64;55.69;101936.59;5000455;28;20199;-76
2022/09/01 09:57:50;;;;;;;4.57;0.90;;;;;;;18.70;56.46;101935.56;5000943;28;20195;-76
2022/09/01 10:00:20;;;;;;;1.23;0.80;;;;;;;18.76;56.41;101929.22;5003105;28;20713;-76
2022/09/01 10:02:53;;;;;;;1.07;0.70;;;;;;;18.81;56.04;101924.69;5002356;28;20286;-76
2022/09/01 10:05:33;;;;;;;1.30;0.70;;;;;;;18.89;53.05;101967.69;4997416;28;20272;-76
2022/09/01 10:08:00;;;;;;;0.73;0.40;;;;;;;18.98;52.48;102043.28;4999003;28;20253;-77
2022/09/01 10:10:30;;;;;;;0.70;0.50;;;;;;;19.07;52.08;102064.22;4999045;28;20204;-76
2022/09/01 10:12:59;;;;;;;1.97;0.50;;;;;;;19.15;51.33;102086.03;4992308;28;20648;-77
2022/09/01 10:15:28;;;;;;;0.43;0.43;;;;;;;19.22;50.59;102126.44;4992050;28;20265;-76
2022/09/01 10:18:01;;;;;;;0.57;0.57;;;;;;;19.30;50.71;102136.81;4992024;28;20266;-76
2022/09/01 10:20:28;;;;;;;1.40;0.63;;;;;;;19.36;50.97;102132.19;4992417;28;20266;-75
2022/09/01 10:22:55;;;;;;;0.50;0.50;;;;;;;19.41;51.00;102095.88;4992614;28;20221;-76
2022/09/01 10:25:25;;;;;;;0.40;0.33;;;;;;;19.45;50.96;102088.69;4991759;28;20788;-75
2022/09/01 10:27:57;;;;;;;1.33;0.67;;;;;;;19.56;51.37;102098.97;4992295;28;20196;-76
2022/09/01 10:30:24;;;;;;;0.63;0.43;;;;;;;19.61;48.35;102121.75;4992074;28;20297;-76
2022/09/01 10:32:54;;;;;;;1.87;0.57;;;;;;;19.69;48.03;102189.56;4992013;28;20262;-76
2022/09/01 10:35:25;;;;;;;0.63;0.40;;;;;;;19.76;48.25;102193.78;4991990;28;20715;-76
2022/09/01 10:37:53;;;;;;;0.87;0.50;;;;;;;19.83;47.23;102217.41;4992215;28;20219;-75
2022/09/01 10:40:37;;;;;;;1.03;0.50;;;;;;;19.91;47.86;102211.03;4992095;28;20208;-76
2022/09/01 10:43:33;;;;;;;1.97;0.60;;;;;;;19.96;46.07;102198.50;4992067;28;20207;-76
2022/09/01 10:46:00;;;;;;;1.77;0.40;;;;;;;20.05;45.93;102253.88;4991542;28;20224;-76
2022/09/01 10:48:29;;;;;;;1.23;0.53;;;;;;;20.15;45.20;102265.09;4992060;28;20270;-76
2022/09/01 10:51:31;;;;;;;1.07;0.40;;;;;;;20.20;45.98;102273.78;4992822;28;20215;-76
2022/09/01 10:54:00;;;;;;;1.47;0.50;;;;;;;20.28;45.36;102258.50;4995262;28;20231;-76
2022/09/01 10:56:40;;;;;;;0.47;0.47;;;;;;;20.33;45.10;102253.91;4997265;28;20740;-77
2022/09/01 10:59:10;;;;;;;0.70;0.43;;;;;;;20.31;44.46;102269.00;4999248;28;20207;-78
2022/09/01 11:02:13;;;;;;;0.53;0.40;;;;;;;20.35;43.40;102289.22;4998521;28;20693;-77
2022/09/01 11:05:12;;;;;;;3.00;0.47;;;;;;;20.58;42.90;102356.66;4998389;28;20282;-78
2022/09/01 11:07:39;;;;;;;0.70;0.30;;;;;;;20.65;42.58;102357.34;4997558;28;20218;-78
2022/09/01 11:10:46;;;;;;;1.93;0.87;;;;;;;20.79;43.50;102264.91;4997702;28;20582;-78
2022/09/01 11:13:35;;;;;;;3.70;1.50;;;;;;;20.99;46.69;102290.78;4968237;28;20794;-78
2022/09/01 11:16:28;;;;;;;10.17;2.97;;;;;;;21.26;44.78;102256.25;4997925;28;20226;-77
2022/09/01 11:18:55;;;;;;;5.50;1.60;;;;;;;21.38;43.82;102280.59;4998412;28;20235;-78
2022/09/01 11:21:26;;;;;;;0.60;0.50;;;;;;;21.44;41.61;102316.75;5009008;28;20204;-78
2022/09/01 11:24:43;;;;;;;1.43;0.57;;;;;;;21.69;41.81;102415.13;5004534;28;20704;-78
2022/09/01 11:27:33;;;;;;;2.13;0.57;;;;;;;21.95;38.71;102437.28;4998395;28;20230;-78
2022/09/01 11:30:06;;;;;;;1.70;0.67;;;;;;;22.21;40.66;102450.53;4980704;28;20266;-78
2022/09/01 11:32:36;;;;;;;0.53;0.40;;;;;;;22.85;38.12;102475.72;4981580;28;20215;-79
2022/09/01 11:35:06;;;;;;;0.83;0.40;;;;;;;23.64;36.78;102523.31;4980433;28;20651;-79
2022/09/01 11:37:33;;;;;;;1.80;0.50;;;;;;;24.33;36.08;102598.69;4980588;28;20631;-79
2022/09/01 11:40:02;;;;;;;1.13;0.30;;;;;;;25.63;37.28;102600.94;4978596;28;20211;-79
2022/09/01 11:42:39;;;;;;;1.37;0.70;;;;;;;25.75;32.83;102699.38;4978920;28;20212;-78
2022/09/01 11:45:12;;;;;;;0.40;0.40;;;;;;;25.88;32.64;102724.56;4978718;28;20240;-78